sensor_id;sensor_type;location;lat;lon;timestamp;P1;durP1;ratioP1;P2;durP2;ratioP2
34573;SDS011;20809;49.594;8.734;2023-06-10T00:02:47;8.57;;;5.93;;
34573;SDS011;20809;49.594;8.734;2023-06-10T00:05:48;6.50;;;5.37;;
34573;SDS011;20809;49.594;8.734;2023-06-10T00:08:49;5.90;;;5.40;;
34573;SDS011;20809;49.594;8.734;2023-06-10T00:14:50;7.17;;;6.47;;
34573;SDS011;20809;49.594;8.734;2023-06-10T00:17:53;6.07;;;5.47;;
34573;SDS011;20809;49.594;8.734;2023-06-10T00:20:55;5.90;;;5.38;;
34573;SDS011;20809;49.594;8.734;2023-06-10T00:23:55;6.38;;;5.88;;
34573;SDS011;20809;49.594;8.734;2023-06-10T00:26:56;5.68;;;5.13;;
34573;SDS011;20809;49.594;8.734;2023-06-10T00:29:57;7.82;;;6.65;;
34573;SDS011;20809;49.594;8.734;2023-06-10T00:32:58;7.18;;;5.82;;
34573;SDS011;20809;49.594;8.734;2023-06-10T00:35:59;6.47;;;5.88;;
34573;SDS011;20809;49.594;8.734;2023-06-10T00:39:03;8.85;;;6.22;;
34573;SDS011;20809;49.594;8.734;2023-06-10T00:42:05;6.78;;;5.72;;
34573;SDS011;20809;49.594;8.734;2023-06-10T00:45:08;6.55;;;5.95;;
34573;SDS011;20809;49.594;8.734;2023-06-10T00:48:13;9.38;;;5.97;;
34573;SDS011;20809;49.594;8.734;2023-06-10T00:51:15;6.00;;;5.50;;
34573;SDS011;20809;49.594;8.734;2023-06-10T00:54:18;6.30;;;5.55;;
34573;SDS011;20809;49.594;8.734;2023-06-10T00:59:10;7.90;;;6.40;;
34573;SDS011;20809;49.594;8.734;2023-06-10T01:02:14;8.55;;;6.07;;
34573;SDS011;20809;49.594;8.734;2023-06-10T01:05:16;6.57;;;5.88;;
34573;SDS011;20809;49.594;8.734;2023-06-10T01:08:19;7.95;;;6.82;;
34573;SDS011;20809;49.594;8.734;2023-06-10T01:11:34;6.55;;;5.95;;
34573;SDS011;20809;49.594;8.734;2023-06-10T01:14:47;7.10;;;5.90;;
34573;SDS011;20809;49.594;8.734;2023-06-10T01:17:58;7.13;;;6.00;;
34573;SDS011;20809;49.594;8.734;2023-06-10T01:21:04;8.13;;;5.45;;
34573;SDS011;20809;49.594;8.734;2023-06-10T01:24:08;6.70;;;6.10;;
34573;SDS011;20809;49.594;8.734;2023-06-10T01:27:12;8.43;;;6.32;;
34573;SDS011;20809;49.594;8.734;2023-06-10T01:30:17;5.72;;;5.15;;
34573;SDS011;20809;49.594;8.734;2023-06-10T01:33:25;6.55;;;5.63;;
34573;SDS011;20809;49.594;8.734;2023-06-10T01:36:30;9.48;;;5.95;;
34573;SDS011;20809;49.594;8.734;2023-06-10T01:39:34;6.30;;;5.70;;
34573;SDS011;20809;49.594;8.734;2023-06-10T01:42:37;7.28;;;5.90;;
34573;SDS011;20809;49.594;8.734;2023-06-10T01:45:39;6.90;;;6.30;;
34573;SDS011;20809;49.594;8.734;2023-06-10T01:48:41;6.47;;;5.53;;
34573;SDS011;20809;49.594;8.734;2023-06-10T01:51:44;7.38;;;5.53;;
34573;SDS011;20809;49.594;8.734;2023-06-10T01:54:46;5.90;;;5.40;;
34573;SDS011;20809;49.594;8.734;2023-06-10T01:57:47;5.97;;;5.47;;
34573;SDS011;20809;49.594;8.734;2023-06-10T02:00:49;6.32;;;5.72;;
34573;SDS011;20809;49.594;8.734;2023-06-10T02:03:51;6.38;;;5.78;;
34573;SDS011;20809;49.594;8.734;2023-06-10T02:06:53;6.22;;;5.63;;
34573;SDS011;20809;49.594;8.734;2023-06-10T02:09:56;8.43;;;6.00;;
34573;SDS011;20809;49.594;8.734;2023-06-10T02:12:58;6.00;;;5.40;;
34573;SDS011;20809;49.594;8.734;2023-06-10T02:16:00;5.65;;;5.22;;
34573;SDS011;20809;49.594;8.734;2023-06-10T02:19:02;6.28;;;5.57;;
34573;SDS011;20809;49.594;8.734;2023-06-10T02:22:06;7.32;;;6.28;;
34573;SDS011;20809;49.594;8.734;2023-06-10T02:25:09;6.75;;;5.82;;
34573;SDS011;20809;49.594;8.734;2023-06-10T02:28:11;7.00;;;5.43;;
34573;SDS011;20809;49.594;8.734;2023-06-10T02:31:13;8.15;;;5.32;;
34573;SDS011;20809;49.594;8.734;2023-06-10T02:34:18;6.10;;;5.60;;
34573;SDS011;20809;49.594;8.734;2023-06-10T02:37:20;6.35;;;5.75;;
34573;SDS011;20809;49.594;8.734;2023-06-10T02:40:21;6.15;;;5.50;;
34573;SDS011;20809;49.594;8.734;2023-06-10T02:43:23;8.07;;;5.50;;
34573;SDS011;20809;49.594;8.734;2023-06-10T02:46:25;6.00;;;5.40;;
34573;SDS011;20809;49.594;8.734;2023-06-10T02:49:29;6.50;;;5.13;;
34573;SDS011;20809;49.594;8.734;2023-06-10T02:52:30;7.47;;;5.45;;
34573;SDS011;20809;49.594;8.734;2023-06-10T02:55:32;6.80;;;5.10;;
34573;SDS011;20809;49.594;8.734;2023-06-10T02:58:33;5.45;;;4.93;;
34573;SDS011;20809;49.594;8.734;2023-06-10T03:01:35;6.30;;;5.50;;
34573;SDS011;20809;49.594;8.734;2023-06-10T03:04:37;6.60;;;5.70;;
34573;SDS011;20809;49.594;8.734;2023-06-10T03:07:39;5.78;;;5.28;;
34573;SDS011;20809;49.594;8.734;2023-06-10T03:10:40;7.60;;;5.53;;
34573;SDS011;20809;49.594;8.734;2023-06-10T03:13:42;6.05;;;5.55;;
34573;SDS011;20809;49.594;8.734;2023-06-10T03:16:44;5.78;;;5.25;;
34573;SDS011;20809;49.594;8.734;2023-06-10T03:19:45;5.75;;;5.15;;
34573;SDS011;20809;49.594;8.734;2023-06-10T03:22:47;6.72;;;6.07;;
34573;SDS011;20809;49.594;8.734;2023-06-10T03:25:48;7.03;;;6.32;;
34573;SDS011;20809;49.594;8.734;2023-06-10T03:28:49;6.50;;;5.70;;
34573;SDS011;20809;49.594;8.734;2023-06-10T03:31:53;7.55;;;5.82;;
34573;SDS011;20809;49.594;8.734;2023-06-10T03:34:57;6.43;;;5.88;;
34573;SDS011;20809;49.594;8.734;2023-06-10T03:37:59;7.05;;;5.88;;
34573;SDS011;20809;49.594;8.734;2023-06-10T03:41:00;9.60;;;6.00;;
34573;SDS011;20809;49.594;8.734;2023-06-10T03:47:04;6.35;;;5.75;;
34573;SDS011;20809;49.594;8.734;2023-06-10T03:50:06;6.45;;;5.85;;
34573;SDS011;20809;49.594;8.734;2023-06-10T03:53:10;7.32;;;5.85;;
34573;SDS011;20809;49.594;8.734;2023-06-10T03:56:16;7.60;;;5.60;;
34573;SDS011;20809;49.594;8.734;2023-06-10T03:59:17;7.88;;;5.50;;
34573;SDS011;20809;49.594;8.734;2023-06-10T04:02:18;6.00;;;5.45;;
34573;SDS011;20809;49.594;8.734;2023-06-10T04:05:19;8.18;;;5.82;;
34573;SDS011;20809;49.594;8.734;2023-06-10T04:08:23;8.15;;;5.32;;
34573;SDS011;20809;49.594;8.734;2023-06-10T04:11:24;5.78;;;5.18;;
34573;SDS011;20809;49.594;8.734;2023-06-10T04:14:24;7.28;;;5.47;;
34573;SDS011;20809;49.594;8.734;2023-06-10T04:17:25;7.05;;;6.22;;
34573;SDS011;20809;49.594;8.734;2023-06-10T04:23:27;6.57;;;5.47;;
34573;SDS011;20809;49.594;8.734;2023-06-10T04:29:40;5.80;;;5.17;;
34573;SDS011;20809;49.594;8.734;2023-06-10T04:32:53;8.80;;;5.57;;
34573;SDS011;20809;49.594;8.734;2023-06-10T04:35:54;10.63;;;5.97;;
34573;SDS011;20809;49.594;8.734;2023-06-10T04:38:55;5.68;;;5.18;;
34573;SDS011;20809;49.594;8.734;2023-06-10T04:41:55;7.57;;;5.07;;
34573;SDS011;20809;49.594;8.734;2023-06-10T04:44:56;6.55;;;5.10;;
34573;SDS011;20809;49.594;8.734;2023-06-10T04:50:58;6.60;;;5.40;;
34573;SDS011;20809;49.594;8.734;2023-06-10T04:53:59;5.55;;;5.03;;
34573;SDS011;20809;49.594;8.734;2023-06-10T04:57:03;6.70;;;5.32;;
34573;SDS011;20809;49.594;8.734;2023-06-10T05:00:06;6.00;;;5.03;;
34573;SDS011;20809;49.594;8.734;2023-06-10T05:03:08;6.63;;;4.68;;
34573;SDS011;20809;49.594;8.734;2023-06-10T05:06:09;6.28;;;5.40;;
34573;SDS011;20809;49.594;8.734;2023-06-10T05:09:09;6.10;;;5.50;;
34573;SDS011;20809;49.594;8.734;2023-06-10T05:12:10;7.22;;;5.78;;
34573;SDS011;20809;49.594;8.734;2023-06-10T05:15:11;7.22;;;5.13;;
34573;SDS011;20809;49.594;8.734;2023-06-10T05:18:11;5.75;;;5.22;;
34573;SDS011;20809;49.594;8.734;2023-06-10T05:21:12;7.15;;;5.72;;
34573;SDS011;20809;49.594;8.734;2023-06-10T05:24:13;6.55;;;5.88;;
34573;SDS011;20809;49.594;8.734;2023-06-10T05:27:14;7.50;;;5.63;;
34573;SDS011;20809;49.594;8.734;2023-06-10T05:30:15;5.35;;;4.85;;
34573;SDS011;20809;49.594;8.734;2023-06-10T05:33:18;6.35;;;5.75;;
34573;SDS011;20809;49.594;8.734;2023-06-10T05:36:19;6.78;;;4.85;;
34573;SDS011;20809;49.594;8.734;2023-06-10T05:39:19;7.10;;;5.50;;
34573;SDS011;20809;49.594;8.734;2023-06-10T05:42:20;5.97;;;5.38;;
34573;SDS011;20809;49.594;8.734;2023-06-10T05:45:21;5.45;;;4.93;;
34573;SDS011;20809;49.594;8.734;2023-06-10T05:48:21;8.23;;;5.47;;
34573;SDS011;20809;49.594;8.734;2023-06-10T05:51:22;7.18;;;5.25;;
34573;SDS011;20809;49.594;8.734;2023-06-10T05:54:23;6.43;;;5.20;;
34573;SDS011;20809;49.594;8.734;2023-06-10T05:57:23;5.80;;;5.25;;
34573;SDS011;20809;49.594;8.734;2023-06-10T06:00:24;6.68;;;5.03;;
34573;SDS011;20809;49.594;8.734;2023-06-10T06:03:25;9.77;;;4.70;;
34573;SDS011;20809;49.594;8.734;2023-06-10T06:06:28;14.00;;;5.07;;
34573;SDS011;20809;49.594;8.734;2023-06-10T06:09:28;4.95;;;4.55;;
34573;SDS011;20809;49.594;8.734;2023-06-10T06:12:29;5.95;;;5.35;;
34573;SDS011;20809;49.594;8.734;2023-06-10T06:15:30;5.25;;;4.47;;
34573;SDS011;20809;49.594;8.734;2023-06-10T06:18:30;4.50;;;4.10;;
34573;SDS011;20809;49.594;8.734;2023-06-10T06:21:31;7.20;;;4.03;;
34573;SDS011;20809;49.594;8.734;2023-06-10T06:24:32;5.13;;;4.63;;
34573;SDS011;20809;49.594;8.734;2023-06-10T06:27:32;4.85;;;4.45;;
34573;SDS011;20809;49.594;8.734;2023-06-10T06:30:33;5.25;;;4.57;;
34573;SDS011;20809;49.594;8.734;2023-06-10T06:33:34;5.07;;;4.63;;
34573;SDS011;20809;49.594;8.734;2023-06-10T06:36:34;5.95;;;5.38;;
34573;SDS011;20809;49.594;8.734;2023-06-10T06:39:35;6.00;;;5.03;;
34573;SDS011;20809;49.594;8.734;2023-06-10T06:42:36;5.93;;;4.40;;
34573;SDS011;20809;49.594;8.734;2023-06-10T06:45:37;4.40;;;4.03;;
34573;SDS011;20809;49.594;8.734;2023-06-10T06:48:37;5.72;;;4.47;;
34573;SDS011;20809;49.594;8.734;2023-06-10T06:51:38;5.03;;;4.32;;
34573;SDS011;20809;49.594;8.734;2023-06-10T06:54:39;5.18;;;4.78;;
34573;SDS011;20809;49.594;8.734;2023-06-10T07:00:40;5.83;;;4.63;;
34573;SDS011;20809;49.594;8.734;2023-06-10T07:03:41;5.13;;;4.63;;
34573;SDS011;20809;49.594;8.734;2023-06-10T07:06:41;5.63;;;4.70;;
34573;SDS011;20809;49.594;8.734;2023-06-10T07:09:42;6.40;;;4.65;;
34573;SDS011;20809;49.594;8.734;2023-06-10T07:12:43;5.32;;;4.55;;
34573;SDS011;20809;49.594;8.734;2023-06-10T07:15:43;4.75;;;3.85;;
34573;SDS011;20809;49.594;8.734;2023-06-10T07:21:45;5.50;;;4.40;;
34573;SDS011;20809;49.594;8.734;2023-06-10T07:27:46;4.63;;;4.23;;
34573;SDS011;20809;49.594;8.734;2023-06-10T07:33:47;5.63;;;5.17;;
34573;SDS011;20809;49.594;8.734;2023-06-10T07:39:48;4.87;;;4.47;;
34573;SDS011;20809;49.594;8.734;2023-06-10T07:42:49;7.57;;;5.70;;
34573;SDS011;20809;49.594;8.734;2023-06-10T07:45:50;4.25;;;3.95;;
34573;SDS011;20809;49.594;8.734;2023-06-10T07:48:51;5.57;;;3.90;;
34573;SDS011;20809;49.594;8.734;2023-06-10T07:51:53;4.47;;;4.13;;
34573;SDS011;20809;49.594;8.734;2023-06-10T07:54:55;4.10;;;3.80;;
34573;SDS011;20809;49.594;8.734;2023-06-10T07:57:56;5.20;;;4.07;;
34573;SDS011;20809;49.594;8.734;2023-06-10T08:00:56;6.07;;;4.30;;
34573;SDS011;20809;49.594;8.734;2023-06-10T08:03:57;5.28;;;4.45;;
34573;SDS011;20809;49.594;8.734;2023-06-10T08:06:58;5.05;;;4.35;;
34573;SDS011;20809;49.594;8.734;2023-06-10T08:09:59;4.32;;;4.03;;
34573;SDS011;20809;49.594;8.734;2023-06-10T08:13:00;4.32;;;3.95;;
34573;SDS011;20809;49.594;8.734;2023-06-10T08:16:01;6.20;;;4.38;;
34573;SDS011;20809;49.594;8.734;2023-06-10T08:19:02;5.22;;;4.60;;
34573;SDS011;20809;49.594;8.734;2023-06-10T08:22:03;4.88;;;4.20;;
34573;SDS011;20809;49.594;8.734;2023-06-10T08:25:04;5.18;;;4.75;;
34573;SDS011;20809;49.594;8.734;2023-06-10T08:28:05;6.28;;;4.40;;
34573;SDS011;20809;49.594;8.734;2023-06-10T08:31:05;6.72;;;5.47;;
34573;SDS011;20809;49.594;8.734;2023-06-10T08:34:06;5.82;;;4.55;;
34573;SDS011;20809;49.594;8.734;2023-06-10T08:37:07;8.02;;;4.47;;
34573;SDS011;20809;49.594;8.734;2023-06-10T08:40:07;4.78;;;4.35;;
34573;SDS011;20809;49.594;8.734;2023-06-10T08:43:17;4.45;;;4.15;;
34573;SDS011;20809;49.594;8.734;2023-06-10T08:46:28;5.75;;;4.28;;
34573;SDS011;20809;49.594;8.734;2023-06-10T08:49:31;5.60;;;5.18;;
34573;SDS011;20809;49.594;8.734;2023-06-10T08:52:39;5.82;;;4.80;;
34573;SDS011;20809;49.594;8.734;2023-06-10T08:55:43;5.20;;;4.15;;
34573;SDS011;20809;49.594;8.734;2023-06-10T08:58:46;7.70;;;4.75;;
34573;SDS011;20809;49.594;8.734;2023-06-10T09:01:48;11.27;;;5.30;;
34573;SDS011;20809;49.594;8.734;2023-06-10T09:04:50;5.25;;;4.85;;
34573;SDS011;20809;49.594;8.734;2023-06-10T09:07:52;5.57;;;4.25;;
34573;SDS011;20809;49.594;8.734;2023-06-10T09:10:53;7.30;;;6.18;;
34573;SDS011;20809;49.594;8.734;2023-06-10T09:13:54;5.10;;;4.70;;
34573;SDS011;20809;49.594;8.734;2023-06-10T09:16:55;5.78;;;4.63;;
34573;SDS011;20809;49.594;8.734;2023-06-10T09:19:59;6.93;;;5.07;;
34573;SDS011;20809;49.594;8.734;2023-06-10T09:23:00;6.78;;;4.68;;
34573;SDS011;20809;49.594;8.734;2023-06-10T09:26:01;7.03;;;5.20;;
34573;SDS011;20809;49.594;8.734;2023-06-10T09:29:04;9.57;;;4.78;;
34573;SDS011;20809;49.594;8.734;2023-06-10T09:32:08;6.38;;;4.82;;
34573;SDS011;20809;49.594;8.734;2023-06-10T09:35:09;5.20;;;4.78;;
34573;SDS011;20809;49.594;8.734;2023-06-10T09:38:10;5.22;;;4.82;;
34573;SDS011;20809;49.594;8.734;2023-06-10T09:41:11;7.88;;;5.45;;
34573;SDS011;20809;49.594;8.734;2023-06-10T09:44:15;5.18;;;4.78;;
34573;SDS011;20809;49.594;8.734;2023-06-10T09:47:21;5.32;;;4.40;;
34573;SDS011;20809;49.594;8.734;2023-06-10T09:50:22;4.55;;;3.95;;
34573;SDS011;20809;49.594;8.734;2023-06-10T09:53:23;4.70;;;3.55;;
34573;SDS011;20809;49.594;8.734;2023-06-10T09:56:34;5.07;;;4.13;;
34573;SDS011;20809;49.594;8.734;2023-06-10T10:02:44;4.50;;;4.10;;
34573;SDS011;20809;49.594;8.734;2023-06-10T10:05:49;4.20;;;3.80;;
34573;SDS011;20809;49.594;8.734;2023-06-10T10:08:49;4.40;;;3.83;;
34573;SDS011;20809;49.594;8.734;2023-06-10T10:11:50;3.88;;;3.58;;
34573;SDS011;20809;49.594;8.734;2023-06-10T10:14:53;5.97;;;4.97;;
34573;SDS011;20809;49.594;8.734;2023-06-10T10:17:58;4.15;;;3.75;;
34573;SDS011;20809;49.594;8.734;2023-06-10T10:21:01;5.00;;;3.67;;
34573;SDS011;20809;49.594;8.734;2023-06-10T10:24:23;3.97;;;3.50;;
34573;SDS011;20809;49.594;8.734;2023-06-10T10:27:36;4.55;;;3.75;;
34573;SDS011;20809;49.594;8.734;2023-06-10T10:30:41;4.20;;;3.80;;
34573;SDS011;20809;49.594;8.734;2023-06-10T10:33:53;4.15;;;3.80;;
34573;SDS011;20809;49.594;8.734;2023-06-10T10:36:57;4.78;;;4.38;;
34573;SDS011;20809;49.594;8.734;2023-06-10T10:43:00;5.18;;;4.00;;
34573;SDS011;20809;49.594;8.734;2023-06-10T10:46:01;5.72;;;3.72;;
34573;SDS011;20809;49.594;8.734;2023-06-10T10:49:06;4.07;;;3.45;;
34573;SDS011;20809;49.594;8.734;2023-06-10T10:52:10;4.03;;;3.67;;
34573;SDS011;20809;49.594;8.734;2023-06-10T10:55:12;3.88;;;3.55;;
34573;SDS011;20809;49.594;8.734;2023-06-10T10:58:13;6.07;;;3.90;;
34573;SDS011;20809;49.594;8.734;2023-06-10T11:01:16;4.13;;;3.00;;
34573;SDS011;20809;49.594;8.734;2023-06-10T11:10:29;6.55;;;3.13;;
34573;SDS011;20809;49.594;8.734;2023-06-10T11:13:34;3.28;;;3.08;;
34573;SDS011;20809;49.594;8.734;2023-06-10T11:16:42;4.03;;;3.72;;
34573;SDS011;20809;49.594;8.734;2023-06-10T11:19:43;8.85;;;3.30;;
34573;SDS011;20809;49.594;8.734;2023-06-10T11:22:58;3.53;;;3.33;;
34573;SDS011;20809;49.594;8.734;2023-06-10T11:29:26;3.75;;;3.30;;
34573;SDS011;20809;49.594;8.734;2023-06-10T11:32:31;3.50;;;3.20;;
34573;SDS011;20809;49.594;8.734;2023-06-10T11:35:33;5.82;;;3.55;;
34573;SDS011;20809;49.594;8.734;2023-06-10T11:38:34;3.95;;;3.65;;
34573;SDS011;20809;49.594;8.734;2023-06-10T11:41:35;4.75;;;3.80;;
34573;SDS011;20809;49.594;8.734;2023-06-10T11:44:36;3.90;;;3.60;;
34573;SDS011;20809;49.594;8.734;2023-06-10T11:47:37;4.40;;;3.50;;
34573;SDS011;20809;49.594;8.734;2023-06-10T11:50:38;6.30;;;4.05;;
34573;SDS011;20809;49.594;8.734;2023-06-10T11:53:39;4.38;;;3.50;;
34573;SDS011;20809;49.594;8.734;2023-06-10T11:56:39;3.67;;;3.40;;
34573;SDS011;20809;49.594;8.734;2023-06-10T11:59:40;5.68;;;3.35;;
34573;SDS011;20809;49.594;8.734;2023-06-10T12:02:41;6.28;;;4.80;;
34573;SDS011;20809;49.594;8.734;2023-06-10T12:15:26;3.75;;;3.08;;
34573;SDS011;20809;49.594;8.734;2023-06-10T12:18:28;3.47;;;3.17;;
34573;SDS011;20809;49.594;8.734;2023-06-10T12:21:29;4.00;;;3.22;;
34573;SDS011;20809;49.594;8.734;2023-06-10T12:24:31;3.67;;;3.40;;
34573;SDS011;20809;49.594;8.734;2023-06-10T12:27:32;4.00;;;3.70;;
34573;SDS011;20809;49.594;8.734;2023-06-10T12:30:33;5.10;;;3.28;;
34573;SDS011;20809;49.594;8.734;2023-06-10T12:33:34;3.55;;;3.30;;
34573;SDS011;20809;49.594;8.734;2023-06-10T12:36:35;5.93;;;2.95;;
34573;SDS011;20809;49.594;8.734;2023-06-10T12:39:36;3.00;;;2.80;;
34573;SDS011;20809;49.594;8.734;2023-06-10T12:42:37;5.22;;;3.58;;
34573;SDS011;20809;49.594;8.734;2023-06-10T12:45:38;3.35;;;3.15;;
34573;SDS011;20809;49.594;8.734;2023-06-10T12:48:49;3.40;;;3.10;;
34573;SDS011;20809;49.594;8.734;2023-06-10T12:51:54;4.15;;;3.20;;
34573;SDS011;20809;49.594;8.734;2023-06-10T12:54:55;20.25;;;5.43;;
34573;SDS011;20809;49.594;8.734;2023-06-10T12:57:55;5.00;;;3.00;;
34573;SDS011;20809;49.594;8.734;2023-06-10T13:00:57;3.95;;;3.45;;
34573;SDS011;20809;49.594;8.734;2023-06-10T13:03:59;78.72;;;8.40;;
34573;SDS011;20809;49.594;8.734;2023-06-10T13:06:59;28.60;;;5.72;;
34573;SDS011;20809;49.594;8.734;2023-06-10T13:10:00;19.00;;;4.25;;
34573;SDS011;20809;49.594;8.734;2023-06-10T13:13:01;7.40;;;2.97;;
34573;SDS011;20809;49.594;8.734;2023-06-10T13:16:05;17.13;;;4.40;;
34573;SDS011;20809;49.594;8.734;2023-06-10T13:19:05;4.80;;;3.40;;
34573;SDS011;20809;49.594;8.734;2023-06-10T13:22:06;3.42;;;3.03;;
34573;SDS011;20809;49.594;8.734;2023-06-10T13:25:07;3.00;;;2.75;;
34573;SDS011;20809;49.594;8.734;2023-06-10T13:28:08;3.75;;;3.17;;
34573;SDS011;20809;49.594;8.734;2023-06-10T13:31:08;4.10;;;3.28;;
34573;SDS011;20809;49.594;8.734;2023-06-10T13:34:09;3.90;;;3.60;;
34573;SDS011;20809;49.594;8.734;2023-06-10T13:37:09;6.22;;;3.08;;
34573;SDS011;20809;49.594;8.734;2023-06-10T13:40:12;3.42;;;3.13;;
34573;SDS011;20809;49.594;8.734;2023-06-10T13:43:12;3.22;;;3.03;;
34573;SDS011;20809;49.594;8.734;2023-06-10T13:46:13;18.02;;;3.65;;
34573;SDS011;20809;49.594;8.734;2023-06-10T13:49:14;6.88;;;3.50;;
34573;SDS011;20809;49.594;8.734;2023-06-10T13:52:14;3.90;;;3.60;;
34573;SDS011;20809;49.594;8.734;2023-06-10T13:55:15;7.32;;;3.92;;
34573;SDS011;20809;49.594;8.734;2023-06-10T13:58:17;5.47;;;3.45;;
34573;SDS011;20809;49.594;8.734;2023-06-10T14:01:18;3.17;;;2.97;;
34573;SDS011;20809;49.594;8.734;2023-06-10T14:04:18;4.18;;;3.85;;
34573;SDS011;20809;49.594;8.734;2023-06-10T14:07:19;3.75;;;3.45;;
34573;SDS011;20809;49.594;8.734;2023-06-10T14:10:19;3.40;;;3.10;;
34573;SDS011;20809;49.594;8.734;2023-06-10T14:13:20;3.40;;;3.20;;
34573;SDS011;20809;49.594;8.734;2023-06-10T14:16:21;3.30;;;3.10;;
34573;SDS011;20809;49.594;8.734;2023-06-10T14:19:21;5.38;;;3.13;;
34573;SDS011;20809;49.594;8.734;2023-06-10T14:22:22;4.15;;;3.80;;
34573;SDS011;20809;49.594;8.734;2023-06-10T14:25:22;5.45;;;3.90;;
34573;SDS011;20809;49.594;8.734;2023-06-10T14:28:23;4.43;;;3.60;;
34573;SDS011;20809;49.594;8.734;2023-06-10T14:31:25;3.15;;;2.90;;
34573;SDS011;20809;49.594;8.734;2023-06-10T14:34:26;4.13;;;3.10;;
34573;SDS011;20809;49.594;8.734;2023-06-10T14:37:29;3.97;;;3.17;;
34573;SDS011;20809;49.594;8.734;2023-06-10T14:40:30;4.85;;;3.60;;
34573;SDS011;20809;49.594;8.734;2023-06-10T14:43:31;4.13;;;3.63;;
34573;SDS011;20809;49.594;8.734;2023-06-10T14:46:32;3.78;;;3.47;;
34573;SDS011;20809;49.594;8.734;2023-06-10T14:49:33;3.25;;;2.95;;
34573;SDS011;20809;49.594;8.734;2023-06-10T14:52:33;3.85;;;3.45;;
34573;SDS011;20809;49.594;8.734;2023-06-10T14:55:34;4.78;;;3.80;;
34573;SDS011;20809;49.594;8.734;2023-06-10T14:58:34;3.75;;;3.45;;
34573;SDS011;20809;49.594;8.734;2023-06-10T15:01:35;5.32;;;3.30;;
34573;SDS011;20809;49.594;8.734;2023-06-10T15:04:36;3.72;;;2.90;;
34573;SDS011;20809;49.594;8.734;2023-06-10T15:07:36;7.50;;;3.70;;
34573;SDS011;20809;49.594;8.734;2023-06-10T15:10:37;5.75;;;3.35;;
34573;SDS011;20809;49.594;8.734;2023-06-10T15:13:37;4.63;;;3.45;;
34573;SDS011;20809;49.594;8.734;2023-06-10T15:16:38;3.92;;;3.63;;
34573;SDS011;20809;49.594;8.734;2023-06-10T15:19:39;7.32;;;3.53;;
34573;SDS011;20809;49.594;8.734;2023-06-10T15:22:39;5.57;;;3.65;;
34573;SDS011;20809;49.594;8.734;2023-06-10T15:25:40;3.90;;;3.60;;
34573;SDS011;20809;49.594;8.734;2023-06-10T15:28:41;4.15;;;3.75;;
34573;SDS011;20809;49.594;8.734;2023-06-10T15:31:42;3.75;;;3.20;;
34573;SDS011;20809;49.594;8.734;2023-06-10T15:34:43;3.80;;;3.20;;
34573;SDS011;20809;49.594;8.734;2023-06-10T15:37:43;5.00;;;3.85;;
34573;SDS011;20809;49.594;8.734;2023-06-10T15:40:44;4.38;;;3.67;;
34573;SDS011;20809;49.594;8.734;2023-06-10T15:43:45;3.92;;;3.55;;
34573;SDS011;20809;49.594;8.734;2023-06-10T15:46:46;5.97;;;3.20;;
34573;SDS011;20809;49.594;8.734;2023-06-10T15:49:47;3.83;;;3.40;;
34573;SDS011;20809;49.594;8.734;2023-06-10T15:52:47;5.05;;;3.40;;
34573;SDS011;20809;49.594;8.734;2023-06-10T15:55:48;3.85;;;3.55;;
34573;SDS011;20809;49.594;8.734;2023-06-10T15:58:48;21.17;;;5.35;;
34573;SDS011;20809;49.594;8.734;2023-06-10T16:01:49;4.30;;;3.42;;
34573;SDS011;20809;49.594;8.734;2023-06-10T16:04:50;3.80;;;3.40;;
34573;SDS011;20809;49.594;8.734;2023-06-10T16:07:50;3.70;;;3.40;;
34573;SDS011;20809;49.594;8.734;2023-06-10T16:10:51;4.63;;;3.13;;
34573;SDS011;20809;49.594;8.734;2023-06-10T16:13:51;7.30;;;3.00;;
34573;SDS011;20809;49.594;8.734;2023-06-10T16:16:52;5.50;;;3.38;;
34573;SDS011;20809;49.594;8.734;2023-06-10T16:19:52;3.67;;;3.38;;
34573;SDS011;20809;49.594;8.734;2023-06-10T16:22:53;3.67;;;3.47;;
34573;SDS011;20809;49.594;8.734;2023-06-10T16:25:54;10.52;;;4.10;;
34573;SDS011;20809;49.594;8.734;2023-06-10T16:28:54;3.40;;;3.10;;
34573;SDS011;20809;49.594;8.734;2023-06-10T16:31:55;5.63;;;3.17;;
34573;SDS011;20809;49.594;8.734;2023-06-10T16:34:55;3.85;;;3.47;;
34573;SDS011;20809;49.594;8.734;2023-06-10T16:37:56;4.15;;;3.38;;
34573;SDS011;20809;49.594;8.734;2023-06-10T16:40:56;3.47;;;3.25;;
34573;SDS011;20809;49.594;8.734;2023-06-10T16:43:57;4.07;;;3.40;;
34573;SDS011;20809;49.594;8.734;2023-06-10T16:46:58;6.03;;;3.95;;
34573;SDS011;20809;49.594;8.734;2023-06-10T16:49:58;4.05;;;3.45;;
34573;SDS011;20809;49.594;8.734;2023-06-10T16:52:59;3.40;;;3.20;;
34573;SDS011;20809;49.594;8.734;2023-06-10T16:55:59;4.28;;;3.97;;
34573;SDS011;20809;49.594;8.734;2023-06-10T16:59:00;3.60;;;3.40;;
34573;SDS011;20809;49.594;8.734;2023-06-10T17:02:01;9.25;;;3.83;;
34573;SDS011;20809;49.594;8.734;2023-06-10T17:05:02;3.65;;;3.35;;
34573;SDS011;20809;49.594;8.734;2023-06-10T17:08:03;3.92;;;3.22;;
34573;SDS011;20809;49.594;8.734;2023-06-10T17:11:03;6.15;;;3.78;;
34573;SDS011;20809;49.594;8.734;2023-06-10T17:14:04;13.45;;;3.75;;
34573;SDS011;20809;49.594;8.734;2023-06-10T17:17:05;3.50;;;3.30;;
34573;SDS011;20809;49.594;8.734;2023-06-10T17:20:05;8.23;;;3.53;;
34573;SDS011;20809;49.594;8.734;2023-06-10T17:23:07;5.68;;;3.58;;
34573;SDS011;20809;49.594;8.734;2023-06-10T17:26:07;4.28;;;3.88;;
34573;SDS011;20809;49.594;8.734;2023-06-10T17:29:08;8.27;;;4.47;;
34573;SDS011;20809;49.594;8.734;2023-06-10T17:32:08;4.25;;;3.85;;
34573;SDS011;20809;49.594;8.734;2023-06-10T17:35:09;6.07;;;3.13;;
34573;SDS011;20809;49.594;8.734;2023-06-10T17:38:11;8.38;;;3.90;;
34573;SDS011;20809;49.594;8.734;2023-06-10T17:44:12;11.17;;;4.03;;
34573;SDS011;20809;49.594;8.734;2023-06-10T17:47:15;3.78;;;3.28;;
34573;SDS011;20809;49.594;8.734;2023-06-10T17:53:16;10.00;;;3.87;;
34573;SDS011;20809;49.594;8.734;2023-06-10T17:59:17;5.33;;;3.50;;
34573;SDS011;20809;49.594;8.734;2023-06-10T18:05:19;6.23;;;4.03;;
34573;SDS011;20809;49.594;8.734;2023-06-10T18:08:20;6.30;;;3.38;;
34573;SDS011;20809;49.594;8.734;2023-06-10T18:14:21;3.13;;;2.92;;
34573;SDS011;20809;49.594;8.734;2023-06-10T18:20:23;3.43;;;3.13;;
34573;SDS011;20809;49.594;8.734;2023-06-10T18:26:24;9.37;;;3.23;;
34573;SDS011;20809;49.594;8.734;2023-06-10T18:29:25;4.28;;;3.20;;
34573;SDS011;20809;49.594;8.734;2023-06-10T18:35:27;3.90;;;3.60;;
34573;SDS011;20809;49.594;8.734;2023-06-10T18:41:28;3.40;;;3.10;;
34573;SDS011;20809;49.594;8.734;2023-06-10T18:47:29;5.37;;;3.67;;
34573;SDS011;20809;49.594;8.734;2023-06-10T18:53:30;3.80;;;3.50;;
34573;SDS011;20809;49.594;8.734;2023-06-10T18:59:33;3.93;;;3.70;;
34573;SDS011;20809;49.594;8.734;2023-06-10T19:02:33;3.53;;;3.30;;
34573;SDS011;20809;49.594;8.734;2023-06-10T19:08:35;4.40;;;4.00;;
34573;SDS011;20809;49.594;8.734;2023-06-10T19:14:36;3.73;;;3.43;;
34573;SDS011;20809;49.594;8.734;2023-06-10T19:17:36;4.13;;;3.70;;
34573;SDS011;20809;49.594;8.734;2023-06-10T19:20:37;4.25;;;3.95;;
34573;SDS011;20809;49.594;8.734;2023-06-10T19:23:39;4.95;;;4.00;;
34573;SDS011;20809;49.594;8.734;2023-06-10T19:29:41;4.07;;;3.47;;
34573;SDS011;20809;49.594;8.734;2023-06-10T19:35:42;6.60;;;4.00;;
34573;SDS011;20809;49.594;8.734;2023-06-10T19:41:43;4.10;;;3.80;;
34573;SDS011;20809;49.594;8.734;2023-06-10T19:44:43;5.57;;;3.92;;
34573;SDS011;20809;49.594;8.734;2023-06-10T19:47:44;4.60;;;4.20;;
34573;SDS011;20809;49.594;8.734;2023-06-10T19:50:45;4.22;;;3.90;;
34573;SDS011;20809;49.594;8.734;2023-06-10T19:53:46;4.22;;;3.92;;
34573;SDS011;20809;49.594;8.734;2023-06-10T19:59:47;7.63;;;4.13;;
34573;SDS011;20809;49.594;8.734;2023-06-10T20:02:47;4.25;;;3.95;;
34573;SDS011;20809;49.594;8.734;2023-06-10T20:05:48;4.90;;;4.50;;
34573;SDS011;20809;49.594;8.734;2023-06-10T20:08:48;4.60;;;4.20;;